Time;durP1;ratioP1;P1;durP2;ratioP2;P2;SDS_P1;SDS_P2;PMS_P1;PMS_P2;Temp;Humidity;BMP_temperature;BMP_pressure;BME280_temperature;BME280_humidity;BME280_pressure;Samples;Min_cycle;Max_cycle;Signal;HPM_P1;HPM_P2
2023/10/08 05:53:43;;;;;;;2.70;1.10;;;14.90;99.90;;;;;;4253431;23;20633;-75
2023/10/08 05:56:28;;;;;;;2.33;1.10;;;14.90;99.90;;;;;;4957540;28;20204;-75
2023/10/08 05:59:14;;;;;;;7.67;1.27;;;14.90;99.90;;;;;;4957723;28;20208;-76
2023/10/08 06:01:41;;;;;;;2.93;1.27;;;14.90;99.90;;;;;;4926728;29;20213;-75
2023/10/08 06:04:42;;;;;;;3.10;1.23;;;15.00;99.90;;;;;;4927621;29;20212;-75
2023/10/08 06:07:17;;;;;;;1.93;0.90;;;15.00;99.90;;;;;;4926669;29;20214;-75
2023/10/08 06:10:01;;;;;;;3.00;1.20;;;15.10;99.90;;;;;;4932027;29;20327;-75
2023/10/08 06:12:30;;;;;;;3.73;1.17;;;15.20;99.90;;;;;;4928458;29;20714;-74
2023/10/08 06:15:08;;;;;;;2.93;1.00;;;15.20;99.90;;;;;;4924445;29;20217;-75
2023/10/08 06:20:25;;;;;;;2.47;1.27;;;15.40;99.90;;;;;;4923581;29;20695;-73
2023/10/08 06:22:58;;;;;;;4.07;1.50;;;15.40;99.90;;;;;;4925758;29;20292;-74
2023/10/08 06:25:28;;;;;;;3.53;1.17;;;15.50;99.90;;;;;;4925298;29;20220;-74
2023/10/08 06:27:56;;;;;;;2.10;0.90;;;15.50;99.90;;;;;;4935089;29;20253;-75
2023/10/08 06:30:28;;;;;;;2.77;1.23;;;15.60;99.90;;;;;;4925908;29;20336;-75
2023/10/08 06:32:56;;;;;;;3.40;1.50;;;15.70;99.90;;;;;;4931458;29;20480;-75
2023/10/08 06:35:25;;;;;;;2.43;1.40;;;15.80;99.90;;;;;;4923732;29;20660;-75
2023/10/08 06:37:56;;;;;;;1.80;1.03;;;15.90;99.90;;;;;;4929416;29;20565;-75
2023/10/08 06:43:21;;;;;;;2.53;1.10;;;16.20;99.90;;;;;;4919600;29;20217;-74
2023/10/08 06:45:52;;;;;;;2.57;1.13;;;16.40;99.90;;;;;;4933120;29;20751;-75
2023/10/08 06:48:20;;;;;;;5.37;1.20;;;16.50;99.90;;;;;;4925189;29;20542;-75
2023/10/08 06:50:47;;;;;;;3.90;1.23;;;16.60;99.90;;;;;;4934291;29;20224;-74
2023/10/08 06:53:14;;;;;;;3.97;1.20;;;16.80;99.90;;;;;;4921118;29;20304;-75
2023/10/08 06:55:43;;;;;;;2.33;1.03;;;17.00;99.90;;;;;;4933581;29;20205;-75
2023/10/08 06:58:11;;;;;;;2.60;1.07;;;17.20;99.90;;;;;;4924890;29;20213;-76
2023/10/08 07:00:39;;;;;;;2.43;1.20;;;17.40;99.90;;;;;;4932872;29;20316;-75
2023/10/08 07:03:10;;;;;;;2.20;0.97;;;17.60;99.90;;;;;;4927137;29;20687;-75
2023/10/08 07:05:40;;;;;;;4.17;1.20;;;17.80;99.90;;;;;;4935577;29;20205;-75
2023/10/08 07:08:09;;;;;;;2.30;1.00;;;17.90;99.90;;;;;;4936463;29;20205;-75
2023/10/08 07:10:36;;;;;;;2.65;1.30;;;18.00;99.90;;;;;;4934897;29;20240;-75
2023/10/08 07:13:07;;;;;;;2.33;1.00;;;18.20;99.90;;;;;;4935992;29;20339;-74
2023/10/08 07:15:38;;;;;;;3.03;1.20;;;18.40;99.90;;;;;;4935583;29;20209;-75
2023/10/08 07:18:09;;;;;;;4.55;1.20;;;18.70;99.90;;;;;;4936794;29;20236;-75
2023/10/08 07:20:39;;;;;;;2.90;1.20;;;19.00;99.90;;;;;;4936637;29;20718;-75
2023/10/08 07:23:18;;;;;;;3.60;1.23;;;19.40;99.90;;;;;;4936766;29;20575;-75
2023/10/08 07:25:51;;;;;;;3.35;1.60;;;19.80;99.90;;;;;;4936647;29;20694;-75
2023/10/08 07:28:20;;;;;;;4.85;1.67;;;20.20;99.90;;;;;;4936428;29;20730;-75
2023/10/08 07:30:49;;;;;;;3.08;1.60;;;20.60;99.90;;;;;;4936527;29;20239;-75
2023/10/08 07:33:18;;;;;;;4.18;1.40;;;20.80;99.90;;;;;;4936491;29;20566;-75
2023/10/08 07:35:54;;;;;;;2.80;1.35;;;20.80;99.90;;;;;;4936489;29;20209;-76
2023/10/08 07:38:22;;;;;;;3.03;1.23;;;20.60;99.90;;;;;;4936553;29;20215;-74
2023/10/08 07:40:49;;;;;;;3.45;1.20;;;19.90;99.90;;;;;;4936232;29;20618;-76
2023/10/08 07:43:20;;;;;;;5.28;1.27;;;19.90;99.90;;;;;;4936299;29;20296;-75
2023/10/08 07:45:48;;;;;;;2.40;1.10;;;19.90;99.90;;;;;;4936166;29;20618;-75
2023/10/08 07:48:15;;;;;;;5.15;1.60;;;20.20;99.90;;;;;;4936621;29;20209;-75
2023/10/08 07:50:45;;;;;;;2.60;1.30;;;20.50;99.90;;;;;;4936621;29;20236;-75
2023/10/08 07:53:17;;;;;;;3.92;1.35;;;20.80;99.90;;;;;;4936526;29;20668;-76
2023/10/08 07:55:48;;;;;;;2.05;1.15;;;21.10;99.90;;;;;;4936554;29;20300;-76
2023/10/08 07:58:16;;;;;;;3.13;1.35;;;21.40;99.90;;;;;;4936790;29;20219;-77
2023/10/08 08:00:51;;;;;;;5.22;1.52;;;21.50;99.90;;;;;;4935794;29;20267;-76
2023/10/08 08:03:22;;;;;;;3.55;1.40;;;21.70;99.90;;;;;;4936180;29;20215;-76
2023/10/08 08:05:52;;;;;;;2.92;1.63;;;21.70;99.90;;;;;;4936155;29;20247;-76
2023/10/08 08:08:22;;;;;;;4.70;1.63;;;21.70;99.90;;;;;;4936264;29;20291;-76
2023/10/08 08:10:50;;;;;;;3.30;1.65;;;21.60;99.90;;;;;;4936051;29;20233;-77
2023/10/08 08:13:20;;;;;;;3.78;1.63;;;21.50;99.90;;;;;;4936111;29;20232;-76
2023/10/08 08:15:50;;;;;;;5.13;1.73;;;21.40;99.90;;;;;;4936370;29;20571;-76
2023/10/08 08:18:22;;;;;;;4.93;1.70;;;21.30;99.90;;;;;;4935782;29;20208;-76
2023/10/08 08:20:50;;;;;;;2.60;1.33;;;21.20;99.90;;;;;;4936136;29;20264;-77
2023/10/08 08:23:17;;;;;;;7.15;1.50;;;21.00;99.90;;;;;;4936040;29;20612;-75
2023/10/08 08:25:55;;;;;;;3.25;1.60;;;21.10;99.90;;;;;;4936029;29;20246;-76
2023/10/08 08:28:24;;;;;;;2.72;1.48;;;21.20;99.90;;;;;;4935982;29;20291;-76
2023/10/08 08:30:55;;;;;;;4.68;1.48;;;21.40;99.90;;;;;;4935861;29;20315;-76
2023/10/08 08:33:29;;;;;;;6.63;1.65;;;21.50;99.90;;;;;;4936470;29;20232;-76
2023/10/08 08:36:01;;;;;;;6.20;1.58;;;21.60;99.90;;;;;;4936286;29;20215;-76
2023/10/08 08:38:29;;;;;;;4.68;1.80;;;21.50;99.90;;;;;;4935913;29;20612;-76
2023/10/08 08:41:06;;;;;;;3.15;1.65;;;21.70;99.90;;;;;;4935871;29;20228;-76
2023/10/08 08:43:35;;;;;;;3.55;1.48;;;21.80;99.90;;;;;;4936002;29;20220;-76
2023/10/08 08:46:06;;;;;;;3.85;1.92;;;21.80;99.90;;;;;;4935989;29;20216;-76
2023/10/08 08:48:35;;;;;;;4.10;1.55;;;21.80;99.90;;;;;;4936001;29;20217;-76
2023/10/08 08:51:06;;;;;;;5.75;1.42;;;22.00;99.90;;;;;;4936081;29;20239;-75
2023/10/08 08:53:33;;;;;;;3.88;1.60;;;22.20;99.90;;;;;;4935981;29;20240;-76
2023/10/08 08:56:03;;;;;;;2.65;1.10;;;22.10;99.90;;;;;;4935730;29;20251;-76
2023/10/08 08:58:32;;;;;;;4.10;1.50;;;22.10;99.90;;;;;;4936004;29;20205;-76
2023/10/08 09:01:03;;;;;;;3.17;1.52;;;21.80;99.90;;;;;;4935965;29;20267;-76
2023/10/08 09:03:31;;;;;;;2.97;1.23;;;21.70;99.90;;;;;;4935970;29;20248;-76
2023/10/08 09:05:58;;;;;;;3.35;1.77;;;21.50;99.90;;;;;;4935932;29;20216;-75
2023/10/08 09:08:33;;;;;;;5.13;1.77;;;21.30;99.90;;;;;;4936039;29;20303;-76
2023/10/08 09:11:01;;;;;;;3.55;1.67;;;21.40;99.90;;;;;;4935937;29;20294;-75
2023/10/08 09:13:29;;;;;;;3.75;1.70;;;21.40;99.90;;;;;;4938579;29;20248;-75
2023/10/08 09:16:04;;;;;;;4.60;1.95;;;21.50;99.90;;;;;;4939425;29;20248;-76
2023/10/08 09:18:33;;;;;;;3.10;1.42;;;21.40;99.90;;;;;;4939184;29;20667;-75
2023/10/08 09:21:11;;;;;;;6.80;2.20;;;21.40;99.90;;;;;;4939129;29;20229;-75
2023/10/08 09:23:47;;;;;;;3.25;1.45;;;21.60;99.90;;;;;;4939483;29;20212;-75
2023/10/08 09:26:15;;;;;;;4.45;1.65;;;21.70;99.90;;;;;;4939866;29;20209;-75
2023/10/08 09:28:46;;;;;;;5.72;1.73;;;21.60;99.90;;;;;;4939172;29;20213;-75
2023/10/08 09:31:14;;;;;;;4.95;2.03;;;21.40;99.90;;;;;;4939574;29;20280;-75
2023/10/08 09:33:41;;;;;;;3.80;1.70;;;21.40;99.90;;;;;;4939606;29;20778;-76
2023/10/08 09:36:10;;;;;;;6.13;1.90;;;21.40;99.90;;;;;;4939549;29;20666;-75
2023/10/08 09:38:38;;;;;;;6.90;1.80;;;21.30;99.90;;;;;;4939752;29;20212;-76
2023/10/08 09:41:08;;;;;;;6.13;1.90;;;21.10;99.90;;;;;;4940968;29;20707;-75
2023/10/08 09:43:36;;;;;;;4.50;1.80;;;21.20;99.90;;;;;;4944476;29;20595;-75
2023/10/08 09:46:13;;;;;;;5.72;1.95;;;21.20;99.90;;;;;;4943878;29;20223;-75
2023/10/08 09:48:43;;;;;;;4.82;2.10;;;21.20;99.90;;;;;;4944681;29;20240;-75
2023/10/08 09:51:12;;;;;;;7.07;2.17;;;21.30;99.90;;;;;;4944435;29;20576;-75
2023/10/08 09:53:48;;;;;;;4.53;1.60;;;21.30;99.90;;;;;;4944581;29;20240;-76
2023/10/08 09:56:17;;;;;;;4.28;1.90;;;21.20;99.90;;;;;;4944297;29;20321;-75
2023/10/08 09:58:45;;;;;;;3.83;1.90;;;21.30;99.90;;;;;;4940872;29;20695;-75
2023/10/08 10:01:13;;;;;;;5.50;2.00;;;21.30;99.90;;;;;;4939832;29;20320;-75
2023/10/08 10:03:42;;;;;;;5.55;2.17;;;21.30;99.90;;;;;;4939773;29;20236;-75
2023/10/08 10:06:15;;;;;;;5.38;2.20;;;21.60;99.90;;;;;;4940151;29;20209;-75
2023/10/08 10:08:43;;;;;;;3.03;1.80;;;21.90;99.90;;;;;;4939632;29;20247;-75
2023/10/08 10:11:11;;;;;;;4.55;1.90;;;21.80;99.90;;;;;;4939163;29;20256;-76
2023/10/08 10:13:44;;;;;;;4.50;1.70;;;21.90;99.90;;;;;;4939008;29;20236;-76
2023/10/08 10:16:13;;;;;;;6.20;2.22;;;21.80;99.90;;;;;;4938894;29;20671;-76
2023/10/08 10:18:40;;;;;;;6.03;1.98;;;21.80;99.90;;;;;;4938950;29;20303;-77
2023/10/08 10:21:27;;;;;;;6.20;2.20;;;21.80;99.90;;;;;;4939372;29;20259;-75
2023/10/08 10:23:56;;;;;;;4.05;1.77;;;21.80;99.90;;;;;;4955542;28;20215;-75
2023/10/08 10:26:25;;;;;;;2.83;1.70;;;21.90;99.90;;;;;;4956027;29;20301;-75
2023/10/08 10:29:21;;;;;;;4.85;1.92;;;21.80;99.90;;;;;;4955391;29;20267;-74
2023/10/08 10:31:52;;;;;;;6.40;1.80;;;21.80;99.90;;;;;;4935205;28;20209;-74
2023/10/08 10:34:20;;;;;;;4.10;1.70;;;21.70;99.90;;;;;;4936738;29;20236;-73
2023/10/08 10:36:49;;;;;;;3.85;2.00;;;21.80;99.90;;;;;;4936333;29;20299;-75
2023/10/08 10:39:18;;;;;;;5.65;2.13;;;21.90;99.90;;;;;;4936271;29;20260;-76
2023/10/08 10:41:45;;;;;;;3.80;1.80;;;21.80;99.90;;;;;;4936231;29;20667;-74
2023/10/08 10:44:13;;;;;;;6.68;1.98;;;21.90;99.90;;;;;;4935880;29;20236;-74
2023/10/08 10:46:43;;;;;;;3.03;1.80;;;22.00;99.90;;;;;;4936723;29;20205;-75
2023/10/08 10:49:21;;;;;;;5.97;2.90;;;22.10;99.90;;;;;;4937621;29;20205;-75
2023/10/08 10:51:52;;;;;;;3.83;1.65;;;22.20;99.90;;;;;;4937887;29;20280;-74
2023/10/08 10:54:20;;;;;;;5.57;1.90;;;22.30;99.90;;;;;;4937974;29;20223;-76
2023/10/08 10:56:58;;;;;;;6.43;2.55;;;22.60;99.90;;;;;;4938315;29;20216;-77
2023/10/08 10:59:27;;;;;;;5.05;1.90;;;22.60;99.90;;;;;;4937830;29;20288;-76
2023/10/08 11:02:07;;;;;;;5.25;1.88;;;22.50;99.90;;;;;;4937797;29;20213;-76
2023/10/08 11:04:47;;;;;;;4.18;1.75;;;22.40;99.90;;;;;;4937984;29;20209;-74
2023/10/08 11:07:15;;;;;;;3.78;1.80;;;22.50;99.90;;;;;;4937772;29;20209;-75
2023/10/08 11:09:44;;;;;;;5.25;2.10;;;22.30;99.90;;;;;;4937161;29;20260;-75
2023/10/08 11:12:18;;;;;;;6.43;1.88;;;22.40;99.90;;;;;;4937712;29;20216;-75
2023/10/08 11:14:48;;;;;;;3.45;1.80;;;22.40;99.90;;;;;;4937497;29;20607;-75
2023/10/08 11:17:22;;;;;;;4.45;1.88;;;22.50;99.90;;;;;;4937343;29;20247;-76
2023/10/08 11:19:50;;;;;;;5.28;1.77;;;22.40;99.90;;;;;;4937897;29;20232;-76
2023/10/08 11:22:18;;;;;;;4.57;1.77;;;22.40;99.90;;;;;;4937305;29;20208;-75
2023/10/08 11:24:48;;;;;;;5.38;2.13;;;22.50;99.90;;;;;;4937112;29;20268;-75
2023/10/08 11:27:17;;;;;;;4.07;1.92;;;22.70;99.90;;;;;;4937119;29;20215;-75
2023/10/08 11:29:46;;;;;;;5.15;2.25;;;22.80;99.90;;;;;;4936947;29;20264;-75
2023/10/08 11:32:15;;;;;;;4.65;2.50;;;22.80;99.90;;;;;;4936792;29;20611;-75
2023/10/08 11:34:49;;;;;;;6.13;1.90;;;22.90;99.90;;;;;;4936557;29;20216;-76
2023/10/08 11:37:27;;;;;;;5.95;2.08;;;22.80;99.90;;;;;;4936750;29;20212;-75
2023/10/08 11:39:58;;;;;;;4.68;1.95;;;22.70;99.90;;;;;;4937402;29;20260;-76
2023/10/08 11:42:43;;;;;;;6.60;1.98;;;22.70;99.90;;;;;;4937113;29;20216;-76
2023/10/08 11:45:23;;;;;;;4.28;1.92;;;22.70;99.90;;;;;;4937236;29;20209;-74
2023/10/08 11:47:55;;;;;;;6.43;2.28;;;22.70;99.90;;;;;;4937474;29;20240;-75
2023/10/08 11:50:30;;;;;;;4.53;1.98;;;22.80;99.90;;;;;;4937696;29;20258;-74
2023/10/08 11:53:02;;;;;;;5.07;1.63;;;22.90;99.90;;;;;;4937170;29;20254;-76
2023/10/08 11:55:30;;;;;;;4.30;2.13;;;23.00;99.90;;;;;;4937500;29;20667;-76
2023/10/08 11:57:57;;;;;;;5.13;1.85;;;23.00;99.90;;;;;;4936783;29;20208;-76
2023/10/08 12:00:26;;;;;;;6.93;2.20;;;23.00;99.90;;;;;;4938753;29;20836;-75
2023/10/08 12:02:55;;;;;;;5.82;2.00;;;22.80;99.90;;;;;;4938195;29;20217;-73
2023/10/08 12:05:24;;;;;;;4.95;2.42;;;22.80;99.90;;;;;;4937060;29;20277;-74
2023/10/08 12:07:57;;;;;;;3.40;2.13;;;22.90;99.90;;;;;;4940942;29;20208;-75
2023/10/08 12:10:25;;;;;;;4.22;2.03;;;22.80;99.90;;;;;;4938754;29;20232;-74
2023/10/08 12:12:54;;;;;;;5.78;2.05;;;23.00;99.90;;;;;;4939671;29;20233;-75
2023/10/08 12:15:21;;;;;;;5.35;2.05;;;23.10;99.90;;;;;;4940206;29;20217;-75
2023/10/08 12:18:08;;;;;;;5.38;1.90;;;23.00;99.90;;;;;;4938882;29;20213;-74
2023/10/08 12:20:38;;;;;;;7.00;2.10;;;23.10;99.90;;;;;;4937132;29;20228;-74
2023/10/08 12:23:10;;;;;;;5.03;2.13;;;23.20;99.90;;;;;;4936756;29;20635;-72
2023/10/08 12:25:37;;;;;;;4.82;1.75;;;23.20;99.90;;;;;;4936601;29;20211;-73
2023/10/08 12:28:06;;;;;;;4.35;2.08;;;23.30;99.90;;;;;;4937723;29;20204;-73
2023/10/08 12:30:41;;;;;;;6.07;1.92;;;23.30;99.90;;;;;;4936919;29;20232;-75
2023/10/08 12:33:12;;;;;;;4.90;1.80;;;23.30;99.90;;;;;;4936596;29;20646;-75
2023/10/08 12:35:41;;;;;;;6.53;1.98;;;23.60;99.90;;;;;;4938292;29;20263;-75
2023/10/08 12:38:09;;;;;;;7.20;2.50;;;23.60;99.90;;;;;;4939573;29;20216;-75
2023/10/08 12:40:47;;;;;;;4.82;1.85;;;23.70;99.90;;;;;;4940010;29;20233;-76
2023/10/08 12:43:18;;;;;;;7.45;2.42;;;23.70;99.90;;;;;;4936418;29;20209;-75
2023/10/08 12:45:51;;;;;;;4.93;2.08;;;23.70;99.90;;;;;;4936577;29;20268;-76
2023/10/08 12:48:20;;;;;;;4.68;2.40;;;23.80;99.90;;;;;;4940620;29;20217;-74
2023/10/08 12:50:52;;;;;;;5.82;2.55;;;23.80;99.90;;;;;;4940396;29;20311;-75
2023/10/08 12:53:26;;;;;;;5.80;2.67;;;24.00;99.90;;;;;;4941363;29;20568;-75
2023/10/08 12:55:56;;;;;;;7.55;3.10;;;24.20;99.90;;;;;;4940592;29;20267;-75
2023/10/08 12:58:25;;;;;;;5.78;2.35;;;24.10;99.90;;;;;;4942418;29;20566;-76
2023/10/08 13:00:57;;;;;;;7.97;2.40;;;24.00;99.90;;;;;;4939948;29;20646;-75
2023/10/08 13:03:25;;;;;;;5.40;2.33;;;24.00;99.90;;;;;;4940474;29;20205;-75
2023/10/08 13:05:53;;;;;;;4.65;1.98;;;24.10;99.90;;;;;;4939987;29;20216;-76
2023/10/08 13:08:22;;;;;;;6.10;2.60;;;24.00;99.90;;;;;;4939854;29;20268;-74
2023/10/08 13:10:49;;;;;;;4.35;2.30;;;24.00;99.90;;;;;;4940303;29;20265;-75
2023/10/08 13:13:18;;;;;;;4.45;2.03;;;23.90;99.90;;;;;;4939636;29;20292;-74
2023/10/08 13:15:49;;;;;;;4.97;2.30;;;23.90;99.90;;;;;;4940454;29;20212;-74
2023/10/08 13:18:16;;;;;;;5.65;2.33;;;23.90;99.90;;;;;;4940100;29;20655;-75
2023/10/08 13:20:47;;;;;;;4.28;1.80;;;23.90;99.90;;;;;;4939900;29;20283;-76
2023/10/08 13:23:14;;;;;;;4.95;2.15;;;23.90;99.90;;;;;;4940985;29;20252;-75
2023/10/08 13:25:42;;;;;;;5.32;2.20;;;24.00;99.90;;;;;;4940645;29;20205;-76
2023/10/08 13:28:11;;;;;;;5.78;2.20;;;24.00;99.90;;;;;;4939718;29;20245;-76
2023/10/08 13:30:38;;;;;;;5.25;2.20;;;23.90;99.90;;;;;;4939779;29;20243;-72
2023/10/08 13:33:08;;;;;;;4.45;2.28;;;23.90;99.90;;;;;;4939527;29;20291;-74
2023/10/08 13:35:35;;;;;;;4.68;2.38;;;24.00;99.90;;;;;;4940309;29;20212;-75
2023/10/08 13:38:09;;;;;;;5.18;2.28;;;24.00;99.90;;;;;;4939237;29;20240;-75
2023/10/08 13:40:43;;;;;;;8.02;2.30;;;24.20;99.90;;;;;;4939660;29;20698;-72
2023/10/08 13:43:11;;;;;;;6.13;2.45;;;24.10;99.90;;;;;;4939594;29;20213;-76
2023/10/08 13:45:39;;;;;;;6.13;2.33;;;24.00;99.90;;;;;;4939618;29;20223;-77
2023/10/08 13:48:13;;;;;;;3.08;1.67;;;23.90;99.90;;;;;;4940229;29;20548;-74
2023/10/08 13:50:40;;;;;;;5.18;2.30;;;23.90;99.90;;;;;;4940028;29;20603;-75
2023/10/08 13:53:07;;;;;;;4.35;2.05;;;23.80;99.90;;;;;;4940784;29;20257;-75
2023/10/08 13:55:35;;;;;;;5.78;2.55;;;24.00;99.90;;;;;;4940785;29;20216;-75
2023/10/08 13:58:02;;;;;;;5.50;2.83;;;24.10;99.90;;;;;;4940280;29;20217;-75
2023/10/08 14:00:36;;;;;;;5.53;2.50;;;24.10;99.90;;;;;;4940468;29;20260;-75
2023/10/08 14:03:07;;;;;;;5.03;2.35;;;24.10;99.90;;;;;;4939789;29;20220;-74
2023/10/08 14:05:36;;;;;;;5.85;2.45;;;24.10;99.90;;;;;;4939312;29;20272;-74
2023/10/08 14:08:15;;;;;;;6.50;2.40;;;24.00;99.90;;;;;;4939893;29;20216;-77
2023/10/08 14:10:43;;;;;;;5.07;2.20;;;24.00;99.90;;;;;;4938691;29;20231;-76
2023/10/08 14:13:10;;;;;;;4.30;2.03;;;24.00;99.90;;;;;;4938729;29;20668;-75
2023/10/08 14:15:44;;;;;;;4.82;2.10;;;24.10;99.90;;;;;;4938736;29;20256;-75
2023/10/08 14:18:16;;;;;;;4.82;2.20;;;24.10;99.90;;;;;;4938489;29;20305;-74
2023/10/08 14:20:46;;;;;;;4.28;2.03;;;24.10;99.90;;;;;;4938914;29;20390;-77
2023/10/08 14:23:16;;;;;;;5.88;2.47;;;24.00;99.90;;;;;;4939286;29;20657;-76
2023/10/08 14:25:45;;;;;;;4.78;2.35;;;24.00;99.90;;;;;;4939077;29;20567;-76
2023/10/08 14:28:21;;;;;;;6.82;2.38;;;24.10;99.90;;;;;;4938738;29;20770;-76
2023/10/08 14:30:55;;;;;;;4.95;2.40;;;24.00;99.90;;;;;;4938553;29;20236;-76
2023/10/08 14:33:26;;;;;;;9.43;2.25;;;24.00;99.90;;;;;;4938894;29;20236;-76
2023/10/08 14:44:07;;;;;;;7.22;2.03;;;24.10;99.90;;;;;;4941107;29;20204;-76
2023/10/08 14:46:36;;;;;;;4.93;2.25;;;24.20;99.90;;;;;;4939277;29;20240;-76
2023/10/08 14:49:09;;;;;;;5.88;2.72;;;24.20;99.90;;;;;;4939289;29;20667;-75
2023/10/08 14:51:40;;;;;;;6.38;2.10;;;24.20;99.90;;;;;;4938339;29;20236;-76
2023/10/08 14:54:08;;;;;;;5.93;2.70;;;24.20;99.90;;;;;;4938865;29;20248;-77
2023/10/08 14:56:38;;;;;;;4.82;2.03;;;24.10;99.90;;;;;;4939294;29;20213;-76
2023/10/08 14:59:05;;;;;;;5.15;2.22;;;24.00;99.90;;;;;;4938486;29;20213;-76
2023/10/08 15:01:34;;;;;;;5.75;1.92;;;24.00;99.90;;;;;;4937632;29;20695;-76
2023/10/08 15:04:04;;;;;;;3.30;1.95;;;24.00;99.90;;;;;;4937961;29;20213;-76
2023/10/08 15:06:33;;;;;;;7.30;2.42;;;24.00;99.90;;;;;;4939609;29;20264;-76
2023/10/08 15:09:01;;;;;;;5.60;2.08;;;23.90;99.90;;;;;;4937849;29;20216;-76
2023/10/08 15:11:31;;;;;;;4.68;2.15;;;23.90;99.90;;;;;;4941775;29;20276;-76
2023/10/08 15:13:58;;;;;;;4.57;1.90;;;23.90;99.90;;;;;;4941522;29;20236;-74
2023/10/08 15:16:26;;;;;;;8.00;2.35;;;23.80;99.90;;;;;;4938712;29;20222;-75
2023/10/08 15:18:56;;;;;;;4.72;2.13;;;23.80;99.90;;;;;;4938348;29;20209;-76
2023/10/08 15:21:24;;;;;;;5.70;1.88;;;23.80;99.90;;;;;;4937938;29;20699;-76
2023/10/08 15:23:51;;;;;;;4.43;2.20;;;23.80;99.90;;;;;;4938551;29;20213;-77
2023/10/08 15:26:18;;;;;;;5.57;2.42;;;23.80;99.90;;;;;;4938861;29;20265;-75
2023/10/08 15:28:45;;;;;;;4.78;1.73;;;23.70;99.90;;;;;;4937631;29;20208;-75
2023/10/08 15:31:13;;;;;;;5.35;1.98;;;23.70;99.90;;;;;;4939596;29;20243;-75
2023/10/08 15:33:40;;;;;;;5.35;2.10;;;23.60;99.90;;;;;;4937763;29;20287;-74
2023/10/08 15:36:08;;;;;;;5.55;1.83;;;23.60;99.90;;;;;;4938731;29;20244;-73
2023/10/08 15:38:38;;;;;;;3.70;1.90;;;23.50;99.90;;;;;;4939213;29;20727;-75
2023/10/08 15:41:05;;;;;;;5.10;1.85;;;23.40;99.90;;;;;;4937626;29;20284;-76
2023/10/08 15:43:32;;;;;;;4.20;2.10;;;23.30;99.90;;;;;;4937851;29;20209;-76
2023/10/08 15:45:59;;;;;;;4.72;1.85;;;23.40;99.90;;;;;;4937654;29;20267;-77
2023/10/08 15:48:26;;;;;;;5.25;2.03;;;23.20;99.90;;;;;;4937079;29;20264;-77
2023/10/08 15:50:54;;;;;;;5.47;2.00;;;23.20;99.90;;;;;;4937088;29;20239;-75
2023/10/08 15:53:21;;;;;;;4.78;2.15;;;23.20;99.90;;;;;;4937462;29;20304;-75
2023/10/08 15:55:50;;;;;;;4.60;2.22;;;23.10;99.90;;;;;;4937711;29;20216;-77
2023/10/08 15:58:17;;;;;;;4.30;1.80;;;23.10;99.90;;;;;;4937711;29;20217;-76
2023/10/08 16:00:44;;;;;;;4.57;2.03;;;23.00;99.90;;;;;;4937241;29;20233;-76
2023/10/08 16:03:11;;;;;;;5.22;2.30;;;22.90;99.90;;;;;;4937845;29;20537;-76
2023/10/08 16:05:39;;;;;;;6.85;1.98;;;22.70;99.90;;;;;;4939211;29;20212;-76
2023/10/08 16:08:06;;;;;;;3.13;1.70;;;22.80;99.90;;;;;;4939070;29;20638;-77
2023/10/08 16:10:33;;;;;;;4.30;2.20;;;22.90;99.90;;;;;;4938206;29;20644;-77
2023/10/08 16:13:03;;;;;;;5.28;2.33;;;22.90;99.90;;;;;;4937239;29;20353;-76
2023/10/08 16:15:31;;;;;;;4.22;2.13;;;22.80;99.90;;;;;;4937159;29;20240;-76
2023/10/08 16:17:58;;;;;;;5.10;2.03;;;22.80;99.90;;;;;;4937442;29;20304;-76
2023/10/08 16:20:26;;;;;;;4.95;1.58;;;22.70;99.90;;;;;;4937952;29;20312;-76
2023/10/08 16:22:53;;;;;;;5.50;2.20;;;22.70;99.90;;;;;;4937851;29;20572;-76
2023/10/08 16:25:21;;;;;;;3.90;2.03;;;22.70;99.90;;;;;;4938889;29;20236;-77
2023/10/08 16:27:53;;;;;;;5.15;1.70;;;22.60;99.90;;;;;;4937561;29;20205;-75
2023/10/08 16:30:25;;;;;;;5.35;1.80;;;22.50;99.90;;;;;;4937387;29;20239;-76
2023/10/08 16:32:54;;;;;;;4.38;1.98;;;22.30;99.90;;;;;;4937658;29;20208;-76
2023/10/08 16:35:24;;;;;;;4.03;1.95;;;22.30;99.90;;;;;;4937563;29;20256;-72
2023/10/08 16:37:51;;;;;;;2.38;1.65;;;22.20;99.90;;;;;;4937122;29;20296;-75
2023/10/08 16:40:19;;;;;;;7.20;2.55;;;22.10;99.90;;;;;;4936895;29;20271;-76
2023/10/08 16:42:48;;;;;;;5.45;1.92;;;22.00;99.90;;;;;;4939087;29;20564;-75
2023/10/08 16:45:16;;;;;;;6.40;2.90;;;21.90;99.90;;;;;;4937374;29;20239;-76
2023/10/08 16:47:47;;;;;;;3.42;1.80;;;21.70;99.90;;;;;;4938695;29;20204;-76
2023/10/08 16:50:16;;;;;;;6.82;2.30;;;21.60;99.90;;;;;;4938787;29;20244;-76
2023/10/08 16:52:43;;;;;;;5.85;1.95;;;21.50;99.90;;;;;;4940492;29;20216;-76
2023/10/08 16:55:13;;;;;;;4.80;1.92;;;21.40;99.90;;;;;;4940655;29;20584;-76
2023/10/08 16:57:41;;;;;;;3.17;1.70;;;21.20;99.90;;;;;;4949946;29;20273;-75
2023/10/08 17:00:11;;;;;;;4.07;1.73;;;21.10;99.90;;;;;;4949392;29;20279;-74
2023/10/08 17:02:39;;;;;;;3.63;2.00;;;21.00;99.90;;;;;;4947318;29;20680;-75
2023/10/08 17:05:13;;;;;;;6.38;2.33;;;20.80;99.90;;;;;;4943652;29;20232;-75
2023/10/08 17:07:40;;;;;;;7.82;2.97;;;20.70;99.90;;;;;;4937502;29;20293;-75
2023/10/08 17:10:09;;;;;;;9.10;3.78;;;20.50;99.90;;;;;;4935385;29;20320;-76
2023/10/08 17:12:36;;;;;;;7.82;3.38;;;20.40;99.90;;;;;;4936083;29;20217;-76
2023/10/08 17:15:05;;;;;;;9.23;3.80;;;20.30;99.90;;;;;;4935602;29;20237;-76
2023/10/08 17:17:32;;;;;;;7.70;3.40;;;20.20;99.90;;;;;;4935971;29;20244;-77
2023/10/08 17:20:00;;;;;;;5.63;2.50;;;20.10;99.90;;;;;;4935861;29;20240;-76
2023/10/08 17:22:31;;;;;;;4.70;2.22;;;20.10;99.90;;;;;;4936054;29;20213;-77
2023/10/08 17:24:58;;;;;;;6.45;3.15;;;20.00;99.90;;;;;;4935885;29;20276;-76
2023/10/08 17:27:26;;;;;;;5.43;2.63;;;19.90;99.90;;;;;;4936340;29;20277;-77
2023/10/08 17:29:53;;;;;;;3.90;2.25;;;19.80;99.90;;;;;;4936101;29;20264;-76
2023/10/08 17:32:21;;;;;;;7.80;2.65;;;19.70;99.90;;;;;;4938573;29;20410;-76
2023/10/08 17:34:48;;;;;;;4.80;2.72;;;19.70;99.90;;;;;;4943057;29;20664;-75
2023/10/08 17:37:20;;;;;;;5.97;2.85;;;19.60;99.90;;;;;;4940096;29;20625;-76
2023/10/08 17:39:48;;;;;;;3.42;2.15;;;19.50;99.90;;;;;;4939502;29;20543;-77
2023/10/08 17:42:15;;;;;;;4.47;2.10;;;19.40;99.90;;;;;;4939700;29;20209;-74
2023/10/08 17:44:42;;;;;;;4.30;2.03;;;19.30;99.90;;;;;;4940845;29;20237;-75
2023/10/08 17:47:10;;;;;;;5.20;2.13;;;19.20;99.90;;;;;;4940450;29;20257;-75
2023/10/08 17:49:38;;;;;;;5.28;2.00;;;19.20;99.90;;;;;;4941102;29;20225;-75
2023/10/08 17:52:06;;;;;;;3.88;1.90;;;19.10;99.90;;;;;;4939962;29;20212;-75
2023/10/08 17:54:36;;;;;;;6.22;2.10;;;19.00;99.90;;;;;;4939284;29;20239;-76
2023/10/08 17:57:06;;;;;;;5.38;1.90;;;19.00;99.90;;;;;;4939949;29;20233;-75
2023/10/08 17:59:33;;;;;;;4.95;2.20;;;18.90;99.90;;;;;;4940587;29;20213;-76
2023/10/08 18:02:00;;;;;;;3.67;2.03;;;18.80;99.90;;;;;;4940200;29;20217;-76
2023/10/08 18:04:28;;;;;;;5.38;1.90;;;18.70;99.90;;;;;;4940704;29;20248;-76
2023/10/08 18:06:55;;;;;;;4.47;2.03;;;18.70;99.90;;;;;;4941350;29;20233;-75
2023/10/08 18:09:24;;;;;;;6.85;2.25;;;18.60;99.90;;;;;;4941042;29;20611;-75
2023/10/08 18:11:52;;;;;;;5.57;2.90;;;18.60;99.90;;;;;;4942654;29;20260;-75
2023/10/08 18:14:22;;;;;;;3.67;2.20;;;18.50;99.90;;;;;;4941690;29;20575;-75
2023/10/08 18:16:49;;;;;;;5.68;2.17;;;18.40;99.90;;;;;;4945453;29;20572;-75
2023/10/08 18:19:16;;;;;;;5.35;2.10;;;18.40;99.90;;;;;;4947455;29;20204;-75
2023/10/08 18:21:43;;;;;;;4.65;2.53;;;18.40;99.90;;;;;;4948034;29;20216;-75
2023/10/08 18:24:14;;;;;;;3.28;1.98;;;18.40;99.90;;;;;;4946488;29;20239;-75
2023/10/08 18:26:42;;;;;;;4.28;1.90;;;18.50;99.90;;;;;;4945105;29;20224;-76
2023/10/08 18:29:13;;;;;;;5.10;2.08;;;18.40;99.90;;;;;;4946803;29;20212;-76
2023/10/08 18:31:41;;;;;;;6.05;2.70;;;18.30;99.90;;;;;;4944742;29;20319;-76
2023/10/08 18:34:08;;;;;;;4.53;2.10;;;18.20;99.90;;;;;;4943709;29;20236;-75
2023/10/08 18:36:36;;;;;;;5.78;2.40;;;18.10;99.90;;;;;;4942330;29;20237;-76
2023/10/08 18:39:12;;;;;;;4.70;2.10;;;18.10;99.90;;;;;;4940939;29;20324;-76
2023/10/08 18:41:40;;;;;;;4.80;2.10;;;17.90;99.90;;;;;;4941654;29;20232;-75
2023/10/08 18:44:08;;;;;;;6.75;2.90;;;17.90;99.90;;;;;;4940486;29;20295;-75
2023/10/08 18:46:36;;;;;;;3.85;2.30;;;17.80;99.90;;;;;;4943320;29;20212;-75
2023/10/08 18:49:06;;;;;;;4.00;2.08;;;17.80;99.90;;;;;;4939212;29;20209;-74
2023/10/08 18:51:34;;;;;;;7.60;2.13;;;17.80;99.90;;;;;;4938807;29;20235;-75
2023/10/08 18:54:01;;;;;;;5.25;2.00;;;17.70;99.90;;;;;;4931117;29;20220;-75
2023/10/08 18:56:28;;;;;;;6.10;2.80;;;17.70;99.90;;;;;;4922686;29;20300;-74
2023/10/08 18:58:55;;;;;;;3.50;2.10;;;17.70;99.90;;;;;;4926569;29;20216;-73
2023/10/08 19:01:25;;;;;;;3.77;2.10;;;17.70;99.90;;;;;;4927844;29;20247;-73
2023/10/08 19:03:55;;;;;;;5.17;2.37;;;17.70;99.90;;;;;;4927518;29;20201;-75
2023/10/08 19:06:24;;;;;;;8.23;2.13;;;17.70;99.90;;;;;;4926712;29;20320;-75
2023/10/08 19:08:51;;;;;;;3.50;1.93;;;17.50;99.90;;;;;;4925128;29;20273;-75